Kings Canyon Natl Park (north), California
Current Conditions -  °F | °C
As of 7:15 AM on Wednesday 22 Oct 2014 (Local Time) from KMMH Reporting Station
Clear Clear  
Wind Chill: 30°   Ceiling: Unl
Heat Index: 30°   Visibility: 10mi
Dew Point: 18°   Wind: 3mph
Humidity: 60%   Direction: 350°N
Pressure: 30.21"   Gusts: NA
Location:  37.22°N, 119.25°W
Report Text: KMMH 221415Z AUTO 35003KT 10SM CLR M01/M08 A3021 RMK AO1
Loading
Personal Weather Stations






























Interactive Weather Map
Tropical Storm Tracking
New forecast layout! Learn more

10-Day Weather Forecast

Advertisements
Track Severe Weather on mobile